Time;durP1;ratioP1;P1;durP2;ratioP2;P2;SDS_P1;SDS_P2;PMS_P1;PMS_P2;Temp;Humidity;BMP_temperature;BMP_pressure;BME280_temperature;BME280_humidity;BME280_pressure;Samples;Min_cycle;Max_cycle;Signal;HPM_P1;HPM_P2
2021/11/17 02:26:11;;;;;;;0.40;0.20;;;6.60;99.90;;;;;;5090526;28;20354;-70
2021/11/17 02:28:56;;;;;;;0.40;0.20;;;6.60;99.90;;;;;;5047938;28;20394;-71
2021/11/17 02:32:02;;;;;;;0.70;0.50;;;6.60;99.90;;;;;;5090052;28;20485;-72
2021/11/17 02:34:39;;;;;;;0.40;0.20;;;6.70;99.90;;;;;;5007452;28;20550;-71
2021/11/17 02:37:31;;;;;;;0.40;0.20;;;6.70;99.90;;;;;;5079966;28;20405;-71
2021/11/17 02:40:16;;;;;;;0.40;0.20;;;6.50;99.90;;;;;;5090141;28;20409;-71
2021/11/17 02:43:14;;;;;;;0.40;0.20;;;6.70;99.90;;;;;;5090529;28;20443;-70
2021/11/17 02:46:21;;;;;;;0.40;0.20;;;6.70;99.90;;;;;;5051764;28;20398;-71
2021/11/17 02:49:05;;;;;;;1.10;1.00;;;6.70;99.90;;;;;;5062389;28;20394;-71
2021/11/17 02:51:52;;;;;;;0.40;0.30;;;6.40;99.90;;;;;;5088063;28;20912;-71
2021/11/17 02:54:33;;;;;;;0.40;0.20;;;6.50;99.90;;;;;;5089562;28;20378;-71
2021/11/17 02:57:34;;;;;;;0.40;0.20;;;6.60;99.90;;;;;;5089054;28;20408;-70
2021/11/17 03:00:05;;;;;;;0.40;0.20;;;6.60;99.90;;;;;;5090199;28;20502;-71
2021/11/17 03:02:40;;;;;;;1.10;1.00;;;6.60;99.90;;;;;;5089374;28;20390;-71
2021/11/17 03:05:15;;;;;;;0.40;0.20;;;6.70;99.90;;;;;;5090584;28;20378;-71
2021/11/17 03:07:46;;;;;;;0.40;0.20;;;6.70;99.90;;;;;;5089902;28;20492;-71
2021/11/17 03:10:21;;;;;;;0.40;0.20;;;6.70;99.90;;;;;;5089516;28;20386;-71
2021/11/17 03:12:55;;;;;;;0.40;0.20;;;6.70;99.90;;;;;;5089952;28;20382;-71
2021/11/17 03:15:48;;;;;;;0.40;0.30;;;6.60;99.90;;;;;;5089660;28;20421;-71
2021/11/17 03:18:40;;;;;;;0.40;0.30;;;6.50;99.90;;;;;;5089183;28;20390;-72
2021/11/17 03:21:31;;;;;;;0.40;0.20;;;6.60;99.90;;;;;;5090122;28;20425;-71
2021/11/17 03:24:00;;;;;;;0.40;0.20;;;6.60;99.90;;;;;;5089574;28;20398;-71
2021/11/17 03:26:38;;;;;;;0.40;0.20;;;6.50;99.90;;;;;;5089587;28;20378;-71
2021/11/17 03:29:17;;;;;;;0.50;0.50;;;6.60;99.90;;;;;;5090105;28;20382;-71
2021/11/17 03:31:48;;;;;;;0.40;0.30;;;6.60;99.90;;;;;;5091823;28;20381;-71
2021/11/17 03:34:50;;;;;;;0.60;0.60;;;6.40;99.90;;;;;;5093159;28;20382;-71
2021/11/17 03:37:42;;;;;;;0.40;0.20;;;6.50;99.90;;;;;;5093100;28;20383;-71
2021/11/17 03:40:23;;;;;;;0.40;0.20;;;6.50;99.90;;;;;;5089171;28;20938;-71
2021/11/17 03:43:22;;;;;;;0.40;0.22;;;6.60;99.90;;;;;;5093362;28;20851;-71
2021/11/17 03:46:04;;;;;;;0.40;0.30;;;6.60;99.90;;;;;;5093136;28;20447;-70
2021/11/17 03:48:45;;;;;;;0.40;0.20;;;6.70;99.90;;;;;;5092651;28;20393;-70
2021/11/17 03:51:36;;;;;;;0.60;0.60;;;6.90;99.90;;;;;;5093278;28;20406;-70
2021/11/17 03:54:10;;;;;;;0.40;0.37;;;6.90;99.90;;;;;;5093344;28;20489;-70
2021/11/17 03:57:07;;;;;;;0.40;0.20;;;6.80;99.90;;;;;;5092519;28;20665;-70
2021/11/17 03:59:42;;;;;;;0.40;0.20;;;6.80;99.90;;;;;;5092442;28;20437;-70
2021/11/17 04:02:31;;;;;;;0.40;0.20;;;6.80;99.90;;;;;;5092980;28;20489;-70
2021/11/17 04:05:26;;;;;;;0.40;0.20;;;6.40;99.90;;;;;;5093080;28;20483;-70
2021/11/17 04:07:58;;;;;;;0.40;0.30;;;6.50;99.90;;;;;;5088583;28;20390;-70
2021/11/17 04:10:44;;;;;;;0.40;0.20;;;6.60;99.90;;;;;;5092260;28;20378;-70
2021/11/17 04:13:39;;;;;;;0.40;0.20;;;6.40;99.90;;;;;;5093024;28;20386;-70
2021/11/17 04:16:20;;;;;;;0.40;0.20;;;6.50;99.90;;;;;;5093076;28;20386;-70
2021/11/17 04:18:55;;;;;;;0.40;0.30;;;6.40;99.90;;;;;;5092740;28;20402;-71
2021/11/17 04:21:36;;;;;;;0.40;0.20;;;6.60;99.90;;;;;;5092383;28;20560;-71
2021/11/17 04:24:11;;;;;;;0.40;0.40;;;6.70;99.90;;;;;;5091411;28;20699;-71
2021/11/17 04:26:43;;;;;;;0.40;0.20;;;6.70;99.90;;;;;;5091854;28;20811;-71
2021/11/17 04:29:14;;;;;;;0.50;0.50;;;6.80;99.90;;;;;;5092643;28;20397;-70
2021/11/17 04:31:56;;;;;;;0.40;0.30;;;6.80;99.90;;;;;;5091756;28;20386;-70
2021/11/17 04:34:24;;;;;;;0.40;0.20;;;6.80;99.90;;;;;;5092042;28;20734;-71
2021/11/17 04:37:07;;;;;;;0.40;0.20;;;6.80;99.90;;;;;;5092485;28;20378;-71
2021/11/17 04:40:11;;;;;;;0.40;0.20;;;6.70;99.90;;;;;;5092022;28;20402;-70
2021/11/17 04:42:52;;;;;;;0.40;0.20;;;6.80;99.90;;;;;;5091033;28;20842;-71
2021/11/17 04:45:26;;;;;;;0.40;0.30;;;6.70;99.90;;;;;;5091886;28;20463;-72
2021/11/17 04:48:10;;;;;;;0.40;0.20;;;6.80;99.90;;;;;;5092343;28;20390;-71
2021/11/17 04:50:57;;;;;;;1.00;0.40;;;6.70;99.90;;;;;;5091049;28;20409;-71
2021/11/17 04:53:34;;;;;;;0.40;0.20;;;6.80;99.90;;;;;;5091486;28;20446;-71
2021/11/17 04:56:30;;;;;;;0.40;0.20;;;6.70;99.90;;;;;;5092109;28;20375;-70
2021/11/17 04:59:16;;;;;;;0.40;0.20;;;6.70;99.90;;;;;;5091930;28;20409;-70
2021/11/17 05:01:54;;;;;;;0.40;0.20;;;6.70;99.90;;;;;;5091392;28;20378;-71
2021/11/17 05:04:43;;;;;;;0.40;0.20;;;6.80;99.90;;;;;;5091702;28;20382;-71
2021/11/17 05:07:27;;;;;;;0.40;0.20;;;6.80;99.90;;;;;;5092444;28;20390;-71
2021/11/17 05:10:10;;;;;;;0.50;0.50;;;6.70;99.90;;;;;;5092381;28;20389;-71
2021/11/17 05:13:19;;;;;;;0.40;0.20;;;6.70;99.90;;;;;;5091628;28;20410;-71
2021/11/17 05:16:18;;;;;;;0.40;0.20;;;6.60;99.90;;;;;;5091932;28;20396;-71
2021/11/17 05:18:49;;;;;;;1.10;0.80;;;6.40;99.90;;;;;;5091202;28;20788;-70
2021/11/17 05:21:39;;;;;;;0.40;0.40;;;6.40;99.90;;;;;;5091929;28;20389;-71
2021/11/17 05:24:29;;;;;;;0.40;0.30;;;6.50;99.90;;;;;;5092034;28;20385;-70
2021/11/17 05:27:06;;;;;;;0.40;0.40;;;6.40;99.90;;;;;;5092079;28;20374;-71
2021/11/17 05:29:56;;;;;;;0.40;0.20;;;6.30;99.90;;;;;;5091081;28;20461;-71
2021/11/17 05:32:39;;;;;;;0.40;0.25;;;6.30;99.90;;;;;;5091174;28;20931;-71
2021/11/17 05:35:42;;;;;;;0.40;0.20;;;6.50;99.90;;;;;;5091779;28;20389;-71
2021/11/17 05:38:22;;;;;;;0.40;0.40;;;6.40;99.90;;;;;;5091763;28;20892;-71
2021/11/17 05:41:06;;;;;;;0.40;0.30;;;6.40;99.90;;;;;;5091357;28;20453;-71
2021/11/17 05:43:50;;;;;;;0.40;0.20;;;6.50;99.90;;;;;;5091050;28;20378;-71
2021/11/17 05:46:37;;;;;;;0.40;0.20;;;6.50;99.90;;;;;;5091789;28;20390;-70
2021/11/17 05:49:08;;;;;;;0.68;0.57;;;6.60;99.90;;;;;;5091437;28;20390;-71
2021/11/17 05:51:46;;;;;;;0.40;0.30;;;6.40;99.90;;;;;;5090798;28;20406;-71
2021/11/17 05:54:14;;;;;;;0.40;0.20;;;6.30;99.90;;;;;;5091325;28;20386;-71
2021/11/17 05:57:13;;;;;;;0.40;0.20;;;6.30;99.90;;;;;;5090927;28;20393;-71
2021/11/17 06:00:11;;;;;;;0.40;0.20;;;6.40;99.90;;;;;;5090799;28;20780;-70
2021/11/17 06:03:03;;;;;;;0.40;0.20;;;6.30;99.90;;;;;;5019554;28;20421;-70
2021/11/17 06:05:29;;;;;;;0.40;0.20;;;6.20;99.90;;;;;;5090783;28;20389;-70
2021/11/17 06:07:55;;;;;;;0.40;0.20;;;6.30;99.90;;;;;;5091079;28;20382;-70
2021/11/17 06:10:29;;;;;;;0.40;0.20;;;6.20;99.90;;;;;;5091273;28;20386;-70
2021/11/17 06:12:55;;;;;;;0.40;0.20;;;6.30;99.90;;;;;;5091144;28;20382;-70
2021/11/17 06:15:21;;;;;;;0.40;0.20;;;6.30;99.90;;;;;;5091182;28;20865;-70
2021/11/17 06:17:49;;;;;;;0.40;0.20;;;6.40;99.90;;;;;;5090946;28;20401;-70
2021/11/17 06:20:17;;;;;;;0.40;0.30;;;6.30;99.90;;;;;;5090811;28;20409;-69
2021/11/17 06:22:47;;;;;;;0.40;0.20;;;6.30;99.90;;;;;;5090306;28;21135;-69
2021/11/17 06:25:14;;;;;;;0.40;0.20;;;6.10;99.90;;;;;;5091098;28;20371;-69
2021/11/17 06:27:47;;;;;;;0.40;0.20;;;6.10;99.90;;;;;;5090236;28;20728;-70
2021/11/17 06:30:16;;;;;;;1.73;0.50;;;6.10;99.90;;;;;;5090998;28;20389;-72
2021/11/17 06:32:42;;;;;;;0.40;0.20;;;6.20;99.90;;;;;;5090044;28;20465;-70
2021/11/17 06:35:08;;;;;;;0.40;0.20;;;6.30;99.90;;;;;;5090756;28;20465;-71
2021/11/17 06:37:34;;;;;;;0.80;0.70;;;6.10;99.90;;;;;;5090229;28;20390;-71
2021/11/17 06:40:03;;;;;;;0.40;0.20;;;6.20;99.90;;;;;;5090801;28;20739;-72
2021/11/17 06:42:34;;;;;;;0.40;0.40;;;6.10;99.90;;;;;;5090011;28;20418;-72
2021/11/17 06:45:01;;;;;;;0.40;0.20;;;6.20;99.90;;;;;;5090427;28;20871;-71
2021/11/17 06:47:26;;;;;;;0.40;0.20;;;6.20;99.90;;;;;;5089893;28;20458;-72
2021/11/17 06:49:53;;;;;;;0.40;0.20;;;6.10;99.90;;;;;;5089317;28;20477;-71
2021/11/17 06:52:20;;;;;;;0.40;0.20;;;6.30;99.90;;;;;;5090892;28;20394;-71
2021/11/17 06:54:46;;;;;;;0.40;0.20;;;6.10;99.90;;;;;;5090138;28;20417;-71
2021/11/17 06:57:11;;;;;;;0.40;0.20;;;6.10;99.90;;;;;;5090922;28;20813;-71
2021/11/17 06:59:37;;;;;;;0.50;0.50;;;6.00;99.90;;;;;;5089718;28;20871;-71
2021/11/17 07:02:06;;;;;;;0.40;0.20;;;6.00;99.90;;;;;;5090457;28;20382;-71
2021/11/17 07:04:33;;;;;;;0.40;0.20;;;6.10;99.90;;;;;;5090040;28;20458;-71
2021/11/17 07:06:59;;;;;;;0.40;0.20;;;6.10;99.90;;;;;;5093445;28;20476;-71
2021/11/17 07:09:25;;;;;;;0.40;0.20;;;6.10;99.90;;;;;;5094468;28;20516;-70
2021/11/17 07:11:50;;;;;;;0.40;0.20;;;6.10;99.90;;;;;;5094345;28;20431;-71
2021/11/17 07:14:16;;;;;;;0.40;0.30;;;6.30;99.90;;;;;;5094033;28;20953;-71
2021/11/17 07:16:43;;;;;;;0.40;0.30;;;6.40;99.90;;;;;;5094104;28;20389;-71
2021/11/17 07:19:10;;;;;;;0.40;0.20;;;6.40;99.90;;;;;;5089749;28;20858;-71
2021/11/17 07:21:39;;;;;;;0.40;0.40;;;6.30;99.90;;;;;;5090668;28;20383;-71
2021/11/17 07:24:05;;;;;;;0.40;0.40;;;6.30;99.90;;;;;;5091288;28;20374;-71
2021/11/17 07:26:31;;;;;;;0.40;0.20;;;6.20;99.90;;;;;;5092313;28;20425;-71
2021/11/17 07:28:57;;;;;;;0.40;0.20;;;6.10;99.90;;;;;;5096843;28;20382;-71
2021/11/17 07:31:23;;;;;;;0.60;0.60;;;6.20;99.90;;;;;;5094931;28;20523;-71
2021/11/17 07:33:48;;;;;;;0.40;0.20;;;6.30;99.90;;;;;;5093543;28;20747;-71
2021/11/17 07:36:16;;;;;;;0.50;0.40;;;6.20;99.90;;;;;;5095684;28;20374;-71
2021/11/17 07:38:44;;;;;;;0.40;0.30;;;6.00;99.90;;;;;;5087711;28;20390;-71
2021/11/17 07:41:10;;;;;;;0.40;0.20;;;6.00;99.90;;;;;;5091145;28;20386;-71
2021/11/17 07:43:36;;;;;;;0.40;0.20;;;6.10;99.90;;;;;;5090686;28;20723;-71
2021/11/17 07:46:02;;;;;;;0.40;0.30;;;6.30;99.90;;;;;;5090814;28;20386;-71
2021/11/17 07:48:28;;;;;;;0.40;0.30;;;6.30;99.90;;;;;;5090740;28;20386;-71
2021/11/17 07:50:56;;;;;;;0.40;0.20;;;6.30;99.90;;;;;;5092762;28;20507;-71
2021/11/17 07:53:24;;;;;;;0.40;0.20;;;6.40;99.90;;;;;;5093210;28;20378;-71
2021/11/17 07:55:52;;;;;;;0.40;0.30;;;6.30;99.90;;;;;;5093592;28;20392;-71
2021/11/17 07:58:19;;;;;;;0.40;0.20;;;6.20;99.90;;;;;;5110222;28;20434;-70
2021/11/17 08:00:49;;;;;;;0.40;0.20;;;6.20;99.90;;;;;;5096118;28;20502;-71
2021/11/17 08:03:17;;;;;;;0.40;0.30;;;6.20;99.90;;;;;;5108306;28;20507;-71
2021/11/17 08:05:45;;;;;;;0.40;0.20;;;6.20;99.90;;;;;;5104179;28;20469;-70
2021/11/17 08:08:11;;;;;;;0.40;0.30;;;6.20;99.90;;;;;;5105085;28;20460;-70
2021/11/17 08:10:39;;;;;;;0.40;0.20;;;6.10;99.90;;;;;;5106608;28;20475;-71
2021/11/17 08:13:05;;;;;;;0.40;0.20;;;6.30;99.90;;;;;;5104613;28;20462;-71
2021/11/17 08:15:31;;;;;;;0.40;0.20;;;6.40;99.90;;;;;;5107639;28;20809;-71
2021/11/17 08:17:57;;;;;;;0.40;0.20;;;6.20;99.90;;;;;;5111790;28;20380;-70
2021/11/17 08:20:23;;;;;;;0.40;0.20;;;6.30;99.90;;;;;;5112867;28;20402;-71
2021/11/17 08:22:51;;;;;;;0.90;0.90;;;6.20;99.90;;;;;;5111000;28;20851;-71
2021/11/17 08:25:20;;;;;;;0.40;0.28;;;6.10;99.90;;;;;;5113209;28;20368;-71
2021/11/17 08:27:46;;;;;;;0.40;0.20;;;6.10;99.90;;;;;;5112649;28;20421;-71
2021/11/17 08:30:14;;;;;;;0.40;0.20;;;6.20;99.90;;;;;;5113543;28;20428;-71
2021/11/17 08:32:42;;;;;;;0.40;0.40;;;6.20;99.90;;;;;;5112527;28;20876;-71
2021/11/17 08:35:09;;;;;;;0.40;0.40;;;6.30;99.90;;;;;;5113355;28;20373;-70
2021/11/17 08:37:36;;;;;;;0.40;0.20;;;6.30;99.90;;;;;;5112757;28;20853;-71
2021/11/17 08:40:06;;;;;;;0.40;0.20;;;6.30;99.90;;;;;;5113121;28;20438;-70
2021/11/17 08:42:32;;;;;;;0.40;0.30;;;6.10;99.90;;;;;;5112387;28;20455;-71
2021/11/17 08:44:58;;;;;;;0.40;0.20;;;6.20;99.90;;;;;;5112876;28;20991;-71
2021/11/17 08:47:23;;;;;;;0.40;0.20;;;6.20;99.90;;;;;;5108166;28;20422;-71
2021/11/17 08:49:53;;;;;;;0.40;0.20;;;6.20;99.90;;;;;;5091727;28;20518;-71
2021/11/17 08:52:21;;;;;;;0.40;0.20;;;6.20;99.90;;;;;;5090801;28;20895;-71
2021/11/17 08:54:47;;;;;;;1.10;0.80;;;6.20;99.90;;;;;;5091718;28;20484;-71
2021/11/17 08:57:16;;;;;;;0.40;0.20;;;6.20;99.90;;;;;;5092408;28;20485;-71
2021/11/17 08:59:42;;;;;;;0.40;0.20;;;6.20;99.90;;;;;;5091900;28;20406;-71
2021/11/17 09:02:08;;;;;;;0.40;0.20;;;6.10;99.90;;;;;;5092381;28;20379;-70
2021/11/17 09:04:34;;;;;;;0.50;0.50;;;6.10;99.90;;;;;;5091431;28;20377;-71
2021/11/17 09:07:00;;;;;;;0.40;0.20;;;6.20;99.90;;;;;;5092314;28;20413;-71
2021/11/17 09:09:25;;;;;;;0.40;0.20;;;6.20;99.90;;;;;;5092285;28;20376;-70
2021/11/17 09:11:52;;;;;;;0.40;0.20;;;6.20;99.90;;;;;;5091608;28;20379;-71
2021/11/17 09:14:18;;;;;;;0.40;0.20;;;6.20;99.90;;;;;;5092154;28;20472;-70
2021/11/17 09:16:44;;;;;;;0.40;0.40;;;6.20;99.90;;;;;;5091303;28;20946;-71
2021/11/17 09:19:10;;;;;;;0.40;0.20;;;6.10;99.90;;;;;;5091768;28;20406;-71
2021/11/17 09:21:40;;;;;;;0.40;0.20;;;6.20;99.90;;;;;;5091675;28;20770;-71
2021/11/17 09:24:08;;;;;;;0.60;0.50;;;6.20;99.90;;;;;;5092075;28;20378;-71
2021/11/17 09:26:35;;;;;;;0.40;0.20;;;6.40;99.90;;;;;;5091243;28;20374;-71
2021/11/17 09:29:02;;;;;;;0.40;0.20;;;6.60;99.90;;;;;;5091264;28;20374;-71
2021/11/17 09:31:30;;;;;;;1.00;0.60;;;6.60;99.90;;;;;;5091739;28;20417;-71
2021/11/17 09:33:56;;;;;;;0.40;0.30;;;6.70;99.90;;;;;;5091433;28;20453;-71
2021/11/17 09:36:26;;;;;;;0.40;0.40;;;6.60;99.90;;;;;;5091623;28;20378;-70
2021/11/17 09:38:55;;;;;;;0.60;0.60;;;6.50;99.90;;;;;;5089841;28;20885;-71
2021/11/17 09:41:34;;;;;;;0.45;0.45;;;6.40;99.90;;;;;;5091692;28;20743;-70
2021/11/17 09:44:05;;;;;;;0.40;0.20;;;6.60;99.90;;;;;;5091883;28;20727;-71
2021/11/17 09:46:31;;;;;;;0.90;0.60;;;6.60;99.90;;;;;;5091251;28;20389;-71
2021/11/17 09:49:10;;;;;;;0.40;0.30;;;6.70;99.90;;;;;;5090950;28;20382;-71
2021/11/17 09:51:44;;;;;;;0.40;0.28;;;6.40;99.90;;;;;;5091011;28;20523;-71
2021/11/17 09:54:23;;;;;;;0.60;0.60;;;6.60;99.90;;;;;;5091334;28;20374;-71
2021/11/17 09:57:09;;;;;;;0.40;0.20;;;6.50;99.90;;;;;;5090530;28;20520;-71
2021/11/17 09:59:42;;;;;;;0.60;0.40;;;6.70;99.90;;;;;;5091318;28;20804;-71
2021/11/17 10:02:30;;;;;;;0.40;0.30;;;6.80;99.90;;;;;;5091292;28;20794;-71
2021/11/17 10:05:10;;;;;;;0.80;0.80;;;6.70;99.90;;;;;;5090764;28;20861;-70
2021/11/17 10:13:18;;;;;;;0.40;0.30;;;6.80;99.90;;;;;;5091213;28;20444;-71
2021/11/17 10:15:51;;;;;;;0.40;0.30;;;6.80;99.90;;;;;;5090778;28;20397;-71
2021/11/17 10:18:16;;;;;;;0.40;0.20;;;6.70;99.90;;;;;;5091574;28;20498;-71
2021/11/17 10:20:49;;;;;;;0.40;0.20;;;6.70;99.90;;;;;;5090201;28;20405;-71
2021/11/17 10:23:27;;;;;;;0.40;0.28;;;6.70;99.90;;;;;;5090658;28;20386;-70
2021/11/17 10:26:06;;;;;;;0.40;0.40;;;6.70;99.90;;;;;;5090061;28;20540;-70
2021/11/17 10:28:52;;;;;;;0.40;0.20;;;6.60;99.90;;;;;;5091087;28;20420;-70
2021/11/17 10:31:27;;;;;;;0.63;0.63;;;6.70;99.90;;;;;;5091066;28;20473;-71
2021/11/17 10:34:12;;;;;;;0.40;0.30;;;6.80;99.90;;;;;;5090428;28;20393;-71
2021/11/17 10:36:44;;;;;;;0.40;0.20;;;6.90;99.90;;;;;;5090341;28;20440;-71
2021/11/17 10:39:44;;;;;;;0.40;0.30;;;6.70;99.90;;;;;;5090909;28;20804;-70
2021/11/17 10:42:14;;;;;;;0.40;0.20;;;6.80;99.90;;;;;;5093159;28;20481;-70
2021/11/17 10:44:54;;;;;;;0.40;0.20;;;6.70;99.90;;;;;;5094386;28;20402;-71
2021/11/17 10:47:32;;;;;;;0.40;0.20;;;6.60;99.90;;;;;;5094908;28;20472;-70
2021/11/17 10:50:08;;;;;;;0.40;0.30;;;6.80;99.90;;;;;;5094393;28;20390;-70
2021/11/17 10:53:02;;;;;;;0.40;0.20;;;6.80;99.90;;;;;;5094481;28;20409;-70
2021/11/17 10:55:45;;;;;;;0.40;0.20;;;6.80;99.90;;;;;;5094922;28;20504;-70
2021/11/17 10:58:18;;;;;;;0.40;0.20;;;6.50;99.90;;;;;;5094789;28;20463;-70
2021/11/17 11:00:51;;;;;;;0.40;0.20;;;6.80;99.90;;;;;;5094122;28;20748;-71
2021/11/17 11:03:21;;;;;;;0.40;0.20;;;6.80;99.90;;;;;;5094694;28;20378;-71
2021/11/17 11:06:01;;;;;;;0.40;0.30;;;6.80;99.90;;;;;;5094120;28;20410;-70
2021/11/17 11:08:39;;;;;;;0.40;0.30;;;6.80;99.90;;;;;;5094498;28;20374;-70
2021/11/17 11:11:06;;;;;;;0.40;0.20;;;6.80;99.90;;;;;;5094562;28;20378;-70
2021/11/17 11:13:56;;;;;;;0.40;0.20;;;6.70;99.90;;;;;;5094435;28;20421;-70
2021/11/17 11:16:24;;;;;;;0.40;0.25;;;7.10;99.90;;;;;;5094270;28;20872;-69
2021/11/17 11:18:55;;;;;;;0.40;0.20;;;6.90;99.90;;;;;;5093619;28;20442;-70
2021/11/17 11:21:36;;;;;;;0.40;0.30;;;7.00;99.90;;;;;;5094240;28;20819;-70
2021/11/17 11:24:26;;;;;;;0.40;0.22;;;6.80;99.90;;;;;;5093760;28;20366;-70
2021/11/17 11:26:58;;;;;;;0.40;0.20;;;6.90;99.90;;;;;;5092378;28;20799;-70
2021/11/17 11:30:03;;;;;;;0.40;0.20;;;6.90;99.90;;;;;;5094199;28;20397;-70
2021/11/17 11:32:29;;;;;;;0.40;0.20;;;7.00;99.90;;;;;;5055541;28;20386;-71
2021/11/17 11:35:02;;;;;;;0.40;0.20;;;6.90;99.90;;;;;;5093469;28;20432;-71
2021/11/17 11:37:47;;;;;;;0.40;0.20;;;7.00;99.90;;;;;;5094036;28;20382;-71
2021/11/17 11:40:18;;;;;;;0.40;0.20;;;7.00;99.90;;;;;;5093646;28;20924;-71
2021/11/17 11:43:17;;;;;;;0.40;0.30;;;6.90;99.90;;;;;;5093166;28;20896;-71
2021/11/17 11:45:46;;;;;;;0.40;0.30;;;7.00;99.90;;;;;;5093366;28;20397;-72
2021/11/17 11:48:23;;;;;;;0.40;0.30;;;7.00;99.90;;;;;;5094023;28;20862;-72
2021/11/17 11:51:03;;;;;;;1.20;0.90;;;6.80;99.90;;;;;;5093444;28;20459;-72
2021/11/17 11:53:55;;;;;;;0.40;0.30;;;6.60;99.90;;;;;;5093798;28;20370;-71
2021/11/17 11:56:36;;;;;;;0.60;0.60;;;6.80;99.90;;;;;;5093638;28;20430;-71
2021/11/17 11:59:09;;;;;;;0.40;0.20;;;6.80;99.90;;;;;;5092632;28;20839;-71
2021/11/17 12:01:35;;;;;;;0.40;0.30;;;6.80;99.90;;;;;;5093369;28;20401;-70
2021/11/17 12:04:07;;;;;;;0.40;0.30;;;7.00;99.90;;;;;;5092784;28;20374;-71
2021/11/17 12:06:51;;;;;;;0.40;0.20;;;7.00;99.90;;;;;;5093719;28;20378;-70
2021/11/17 12:09:32;;;;;;;0.40;0.20;;;6.90;99.90;;;;;;5093416;28;20470;-71
2021/11/17 12:12:27;;;;;;;0.40;0.20;;;6.90;99.90;;;;;;5092879;28;20382;-71
2021/11/17 12:15:30;;;;;;;0.40;0.20;;;6.70;99.90;;;;;;5092424;28;20397;-71
2021/11/17 12:18:23;;;;;;;0.40;0.20;;;6.70;99.90;;;;;;5092016;28;20486;-71
2021/11/17 12:21:11;;;;;;;0.40;0.20;;;6.30;99.90;;;;;;5089291;28;20421;-71
2021/11/17 12:23:42;;;;;;;0.40;0.20;;;6.70;99.90;;;;;;5093199;28;20707;-70
2021/11/17 12:26:16;;;;;;;0.40;0.22;;;6.70;99.90;;;;;;5092461;28;20378;-70
2021/11/17 12:28:48;;;;;;;3.60;0.90;;;6.70;99.90;;;;;;5093015;28;20382;-71
2021/11/17 12:31:24;;;;;;;0.40;0.20;;;6.60;99.90;;;;;;5092896;28;20874;-71
2021/11/17 12:33:57;;;;;;;0.40;0.20;;;6.80;99.90;;;;;;5092251;28;20370;-70
2021/11/17 12:36:35;;;;;;;0.40;0.20;;;6.70;99.90;;;;;;5092760;28;20762;-71
2021/11/17 12:39:16;;;;;;;1.00;0.90;;;6.80;99.90;;;;;;5090896;28;20374;-71
2021/11/17 12:41:42;;;;;;;0.40;0.20;;;6.90;99.90;;;;;;5092732;28;20738;-70
2021/11/17 12:44:27;;;;;;;0.40;0.20;;;6.70;99.90;;;;;;5091283;28;20428;-70
2021/11/17 12:47:15;;;;;;;0.40;0.20;;;6.60;99.90;;;;;;5090799;28;20397;-71
2021/11/17 12:49:47;;;;;;;0.40;0.30;;;6.70;99.90;;;;;;5092209;28;20400;-71
2021/11/17 12:52:31;;;;;;;0.40;0.20;;;6.70;99.90;;;;;;5091653;28;20451;-71
2021/11/17 12:55:02;;;;;;;0.40;0.20;;;6.70;99.90;;;;;;5091593;28;20390;-71
2021/11/17 12:57:51;;;;;;;0.40;0.28;;;6.60;99.90;;;;;;5092174;28;20906;-71
2021/11/17 13:00:20;;;;;;;0.40;0.40;;;6.70;99.90;;;;;;5053023;28;20869;-71
2021/11/17 13:02:54;;;;;;;0.40;0.20;;;6.60;99.90;;;;;;5092270;28;20378;-70
2021/11/17 13:05:26;;;;;;;0.50;0.50;;;6.50;99.90;;;;;;5092000;28;20409;-71
2021/11/17 13:08:02;;;;;;;0.90;0.50;;;6.60;99.90;;;;;;5091905;28;20700;-71
2021/11/17 13:10:43;;;;;;;0.40;0.20;;;6.70;99.90;;;;;;5092340;28;20386;-70
2021/11/17 13:13:12;;;;;;;0.40;0.30;;;6.80;99.90;;;;;;5091636;28;20378;-71
2021/11/17 13:15:40;;;;;;;0.40;0.30;;;6.70;99.90;;;;;;5090799;28;20501;-71
2021/11/17 13:18:08;;;;;;;0.70;0.70;;;6.70;99.90;;;;;;5091553;28;20393;-71
2021/11/17 13:20:42;;;;;;;0.40;0.20;;;6.90;99.90;;;;;;5090526;28;20890;-71
2021/11/17 13:23:08;;;;;;;0.55;0.45;;;6.70;99.90;;;;;;5091392;28;20386;-71
2021/11/17 13:26:09;;;;;;;0.40;0.20;;;6.70;99.90;;;;;;5092050;28;20426;-71
2021/11/17 13:28:47;;;;;;;0.40;0.30;;;6.80;99.90;;;;;;5091692;28;20410;-72
2021/11/17 13:31:24;;;;;;;0.40;0.20;;;6.80;99.90;;;;;;5091985;28;20378;-71
2021/11/17 13:33:58;;;;;;;0.40;0.20;;;6.80;99.90;;;;;;5091153;28;20469;-72
2021/11/17 13:36:47;;;;;;;0.40;0.20;;;6.80;99.90;;;;;;5091621;28;20374;-71
2021/11/17 13:39:17;;;;;;;1.30;0.70;;;6.80;99.90;;;;;;5091357;28;20406;-71
2021/11/17 13:41:46;;;;;;;0.40;0.20;;;6.80;99.90;;;;;;5091442;28;20803;-71
2021/11/17 13:44:14;;;;;;;0.40;0.20;;;6.90;99.90;;;;;;5090865;28;20747;-71
2021/11/17 13:47:13;;;;;;;0.50;0.40;;;6.70;99.90;;;;;;5091744;28;20735;-71
2021/11/17 13:49:46;;;;;;;0.40;0.40;;;6.90;99.90;;;;;;5026934;28;20431;-71
2021/11/17 13:52:15;;;;;;;0.40;0.20;;;7.00;99.90;;;;;;5068520;28;20879;-71
2021/11/17 13:54:41;;;;;;;0.40;0.40;;;6.90;99.90;;;;;;5070816;28;20419;-71
2021/11/17 13:57:09;;;;;;;0.40;0.20;;;6.90;99.90;;;;;;5068552;28;20463;-71
2021/11/17 13:59:35;;;;;;;0.40;0.20;;;7.00;99.90;;;;;;5070282;28;20880;-71
2021/11/17 14:02:02;;;;;;;0.40;0.20;;;7.00;99.90;;;;;;5070081;28;20391;-71
2021/11/17 14:04:28;;;;;;;0.40;0.20;;;7.10;99.90;;;;;;5070677;28;20375;-71
2021/11/17 14:06:55;;;;;;;0.40;0.40;;;7.00;99.90;;;;;;5070004;28;20866;-72
2021/11/17 14:09:22;;;;;;;0.40;0.30;;;6.90;99.90;;;;;;5070567;28;20384;-71
2021/11/17 14:11:48;;;;;;;0.40;0.20;;;6.90;99.90;;;;;;5070599;28;20499;-71
2021/11/17 14:14:14;;;;;;;0.40;0.20;;;7.00;99.90;;;;;;5070012;28;20380;-71
2021/11/17 14:16:40;;;;;;;0.40;0.22;;;7.10;99.90;;;;;;5070126;28;20399;-71
2021/11/17 14:19:06;;;;;;;0.40;0.20;;;7.00;99.90;;;;;;5069741;28;20541;-71
2021/11/17 14:21:32;;;;;;;0.40;0.30;;;7.00;99.90;;;;;;5070967;28;20384;-71
2021/11/17 14:23:58;;;;;;;0.40;0.20;;;7.00;99.90;;;;;;5069390;28;20394;-71
2021/11/17 14:26:25;;;;;;;0.40;0.20;;;7.00;99.90;;;;;;5070363;28;20395;-71
2021/11/17 14:29:23;;;;;;;0.40;0.22;;;7.20;99.90;;;;;;5070516;28;20391;-71
2021/11/17 14:31:54;;;;;;;0.40;0.30;;;7.20;99.90;;;;;;5057993;28;20470;-71
2021/11/17 14:34:20;;;;;;;0.40;0.20;;;7.10;99.90;;;;;;5070841;28;20375;-71
2021/11/17 14:36:50;;;;;;;0.47;0.47;;;7.00;99.90;;;;;;5071158;28;20849;-71
2021/11/17 14:39:17;;;;;;;0.40;0.20;;;6.80;99.90;;;;;;5085168;28;20417;-71
2021/11/17 14:41:44;;;;;;;0.40;0.20;;;6.90;99.90;;;;;;5082235;28;20981;-71
2021/11/17 14:44:10;;;;;;;0.40;0.40;;;7.00;99.90;;;;;;5075055;28;20888;-71
2021/11/17 14:46:37;;;;;;;0.40;0.30;;;7.10;99.90;;;;;;5076597;28;20457;-71
2021/11/17 14:49:04;;;;;;;0.40;0.20;;;7.10;99.90;;;;;;5074678;28;20516;-70
2021/11/17 14:51:30;;;;;;;3.90;1.50;;;7.10;99.90;;;;;;5076458;28;20409;-71
2021/11/17 14:53:56;;;;;;;0.50;0.50;;;7.00;99.90;;;;;;5076419;28;20802;-71
2021/11/17 14:56:23;;;;;;;0.40;0.30;;;6.90;99.90;;;;;;5077120;28;20387;-71
2021/11/17 14:58:49;;;;;;;1.30;1.20;;;7.00;99.90;;;;;;5074879;28;20382;-71
2021/11/17 15:01:21;;;;;;;0.40;0.30;;;7.00;99.90;;;;;;5076422;28;20505;-71
2021/11/17 15:03:48;;;;;;;0.40;0.30;;;7.00;99.90;;;;;;5078002;28;20750;-71
2021/11/17 15:06:17;;;;;;;0.40;0.20;;;7.00;99.90;;;;;;5076738;28;20414;-71
2021/11/17 15:08:43;;;;;;;0.40;0.22;;;7.10;99.90;;;;;;5075712;28;20388;-72
2021/11/17 15:11:09;;;;;;;0.40;0.20;;;7.10;99.90;;;;;;5074867;28;20394;-71
2021/11/17 15:13:36;;;;;;;0.40;0.30;;;7.10;99.90;;;;;;5077290;28;20425;-70
2021/11/17 15:16:06;;;;;;;0.40;0.40;;;7.10;99.90;;;;;;5077021;28;20512;-71
2021/11/17 15:18:32;;;;;;;0.50;0.50;;;7.10;99.90;;;;;;5076842;28;20396;-71
2021/11/17 15:20:57;;;;;;;0.40;0.20;;;7.10;99.90;;;;;;5074039;28;20794;-71
2021/11/17 15:23:25;;;;;;;0.40;0.20;;;7.20;99.90;;;;;;5077709;28;20390;-71
2021/11/17 15:25:51;;;;;;;0.40;0.30;;;7.20;99.90;;;;;;5075531;28;20397;-71
2021/11/17 15:28:22;;;;;;;0.40;0.30;;;7.20;99.90;;;;;;5079400;28;20386;-70
2021/11/17 15:30:54;;;;;;;0.40;0.20;;;7.10;99.90;;;;;;5078811;28;20974;-71
2021/11/17 15:33:25;;;;;;;0.40;0.20;;;7.00;99.90;;;;;;5080010;28;20413;-72
2021/11/17 15:35:51;;;;;;;0.40;0.30;;;7.30;99.90;;;;;;5080635;28;20762;-71
2021/11/17 15:38:17;;;;;;;0.40;0.30;;;7.10;99.90;;;;;;5079724;28;20829;-72
2021/11/17 15:40:56;;;;;;;0.40;0.20;;;7.00;99.90;;;;;;5079010;28;20420;-70
2021/11/17 15:43:24;;;;;;;0.40;0.20;;;6.90;99.90;;;;;;5080891;28;20390;-71
2021/11/17 15:45:51;;;;;;;0.40;0.20;;;6.90;99.90;;;;;;5080036;28;20489;-71
2021/11/17 15:48:18;;;;;;;0.40;0.20;;;7.00;99.90;;;;;;5079640;28;20738;-71
2021/11/17 15:50:48;;;;;;;0.40;0.20;;;6.90;99.90;;;;;;5078229;28;20405;-71
2021/11/17 15:53:13;;;;;;;0.40;0.30;;;6.80;99.90;;;;;;5079766;28;20392;-71
2021/11/17 15:55:39;;;;;;;0.40;0.20;;;6.90;99.90;;;;;;5078857;28;20402;-71
2021/11/17 15:58:08;;;;;;;0.40;0.30;;;6.90;99.90;;;;;;5079452;28;20471;-71
2021/11/17 16:00:34;;;;;;;0.40;0.20;;;6.90;99.90;;;;;;5078271;28;20433;-71
2021/11/17 16:03:01;;;;;;;0.40;0.30;;;6.70;99.90;;;;;;5078692;28;20447;-72
2021/11/17 16:05:27;;;;;;;0.40;0.20;;;6.80;99.90;;;;;;5079056;28;20426;-71
2021/11/17 16:07:53;;;;;;;0.50;0.50;;;6.80;99.90;;;;;;5078914;28;20386;-71